sensor_id;sensor_type;location;lat;lon;timestamp;pressure;altitude;pressure_sealevel;temperature;humidity
60240;BME280;46102;39.012;-7.064;2023-01-29T00:00:36;98941.66;;;5.67;54.14
60240;BME280;46102;39.012;-7.064;2023-01-29T00:02:36;98939.22;;;5.65;54.29
60240;BME280;46102;39.012;-7.064;2023-01-29T00:04:37;98944.09;;;5.73;53.71
60240;BME280;46102;39.012;-7.064;2023-01-29T00:06:38;98941.66;;;5.67;54.14
60240;BME280;46102;39.012;-7.064;2023-01-29T00:08:39;98945.19;;;5.67;54.00
60240;BME280;46102;39.012;-7.064;2023-01-29T00:10:40;98948.22;;;5.66;54.20
60240;BME280;46102;39.012;-7.064;2023-01-29T00:12:41;98935.69;;;5.64;54.16
60240;BME280;46102;39.012;-7.064;2023-01-29T00:14:41;98941.13;;;5.64;53.72
60240;BME280;46102;39.012;-7.064;2023-01-29T00:16:42;98935.13;;;5.62;54.12
60240;BME280;46102;39.012;-7.064;2023-01-29T00:18:43;98943.88;;;5.59;54.27
60240;BME280;46102;39.012;-7.064;2023-01-29T00:20:44;98941.16;;;5.59;54.14
60240;BME280;46102;39.012;-7.064;2023-01-29T00:22:45;98945.22;;;5.57;54.16
60240;BME280;46102;39.012;-7.064;2023-01-29T00:24:46;98939.81;;;5.52;53.97
60240;BME280;46102;39.012;-7.064;2023-01-29T00:26:47;98942.22;;;5.53;54.24
60240;BME280;46102;39.012;-7.064;2023-01-29T00:28:49;98936.81;;;5.48;54.17
60240;BME280;46102;39.012;-7.064;2023-01-29T00:30:50;98936.25;;;5.51;54.24
60240;BME280;46102;39.012;-7.064;2023-01-29T00:32:50;98934.91;;;5.49;54.30
60240;BME280;46102;39.012;-7.064;2023-01-29T00:34:52;98931.63;;;5.47;54.32
60240;BME280;46102;39.012;-7.064;2023-01-29T00:36:53;98935.69;;;5.49;53.95
60240;BME280;46102;39.012;-7.064;2023-01-29T00:39:05;98937.63;;;5.49;54.16
60240;BME280;46102;39.012;-7.064;2023-01-29T00:41:14;98932.72;;;5.46;54.41
60240;BME280;46102;39.012;-7.064;2023-01-29T00:43:33;98931.34;;;5.53;53.95
60240;BME280;46102;39.012;-7.064;2023-01-29T00:45:53;98936.81;;;5.48;53.98
60240;BME280;46102;39.012;-7.064;2023-01-29T00:47:53;98933.00;;;5.54;53.44
60240;BME280;46102;39.012;-7.064;2023-01-29T00:49:55;98928.38;;;5.50;53.84
60240;BME280;46102;39.012;-7.064;2023-01-29T00:51:57;98925.38;;;5.46;53.39
60240;BME280;46102;39.012;-7.064;2023-01-29T00:54:16;98930.28;;;5.39;53.78
60240;BME280;46102;39.012;-7.064;2023-01-29T00:56:17;98932.44;;;5.42;54.11
60240;BME280;46102;39.012;-7.064;2023-01-29T00:58:18;98926.75;;;5.43;53.86
60240;BME280;46102;39.012;-7.064;2023-01-29T01:00:27;98931.09;;;5.45;53.91
60240;BME280;46102;39.012;-7.064;2023-01-29T01:02:28;98922.38;;;5.37;53.56
60240;BME280;46102;39.012;-7.064;2023-01-29T01:04:47;98922.69;;;5.36;53.97
60240;BME280;46102;39.012;-7.064;2023-01-29T01:06:48;98915.59;;;5.35;53.81
60240;BME280;46102;39.012;-7.064;2023-01-29T01:08:49;98920.78;;;5.36;53.46
60240;BME280;46102;39.012;-7.064;2023-01-29T01:11:09;98918.56;;;5.33;54.05
60240;BME280;46102;39.012;-7.064;2023-01-29T01:13:10;98915.84;;;5.33;53.60
60240;BME280;46102;39.012;-7.064;2023-01-29T01:15:12;98909.59;;;5.33;53.57
60240;BME280;46102;39.012;-7.064;2023-01-29T01:17:14;98915.84;;;5.33;53.79
60240;BME280;46102;39.012;-7.064;2023-01-29T01:19:15;98909.34;;;5.34;53.41
60240;BME280;46102;39.012;-7.064;2023-01-29T01:21:16;98918.31;;;5.30;53.32
60240;BME280;46102;39.012;-7.064;2023-01-29T01:23:18;98912.88;;;5.30;53.24
60240;BME280;46102;39.012;-7.064;2023-01-29T01:25:19;98909.88;;;5.36;53.75
60240;BME280;46102;39.012;-7.064;2023-01-29T01:27:20;98912.59;;;5.31;53.20
60240;BME280;46102;39.012;-7.064;2023-01-29T01:29:22;98912.91;;;5.25;53.74
60240;BME280;46102;39.012;-7.064;2023-01-29T01:31:23;98911.25;;;5.29;53.44
60240;BME280;46102;39.012;-7.064;2023-01-29T01:33:24;98900.63;;;5.22;53.45
60240;BME280;46102;39.012;-7.064;2023-01-29T01:35:25;98901.75;;;5.16;54.09
60240;BME280;46102;39.012;-7.064;2023-01-29T01:37:26;98904.19;;;5.17;53.58
60240;BME280;46102;39.012;-7.064;2023-01-29T01:39:27;98911.78;;;5.15;54.11
60240;BME280;46102;39.012;-7.064;2023-01-29T01:41:28;98912.63;;;5.16;54.00
60240;BME280;46102;39.012;-7.064;2023-01-29T01:43:46;98903.91;;;5.19;53.78
60240;BME280;46102;39.012;-7.064;2023-01-29T01:45:48;98912.91;;;5.14;53.82
60240;BME280;46102;39.012;-7.064;2023-01-29T01:47:53;98911.78;;;5.15;53.65
60240;BME280;46102;39.012;-7.064;2023-01-29T01:50:03;98906.38;;;5.10;54.22
60240;BME280;46102;39.012;-7.064;2023-01-29T01:52:09;98911.53;;;5.12;54.24
60240;BME280;46102;39.012;-7.064;2023-01-29T01:54:13;98908.53;;;5.08;54.41
60240;BME280;46102;39.012;-7.064;2023-01-29T01:56:21;98910.16;;;5.04;53.93
60240;BME280;46102;39.012;-7.064;2023-01-29T01:58:27;98911.81;;;5.00;54.03
60240;BME280;46102;39.012;-7.064;2023-01-29T02:00:29;98917.78;;;5.02;54.49
60240;BME280;46102;39.012;-7.064;2023-01-29T02:02:30;98910.47;;;5.03;54.57
60240;BME280;46102;39.012;-7.064;2023-01-29T02:04:49;98912.63;;;4.95;54.23
60240;BME280;46102;39.012;-7.064;2023-01-29T02:07:12;98909.38;;;4.93;53.99
60240;BME280;46102;39.012;-7.064;2023-01-29T02:09:38;98912.91;;;4.94;54.93
60240;BME280;46102;39.012;-7.064;2023-01-29T02:11:39;98912.06;;;4.88;54.52
60240;BME280;46102;39.012;-7.064;2023-01-29T02:13:40;98896.03;;;4.87;54.83
60240;BME280;46102;39.012;-7.064;2023-01-29T02:15:42;98904.47;;;4.85;54.25
60240;BME280;46102;39.012;-7.064;2023-01-29T02:17:46;98901.72;;;4.90;54.95
60240;BME280;46102;39.012;-7.064;2023-01-29T02:20:07;98911.81;;;4.85;54.76
60240;BME280;46102;39.012;-7.064;2023-01-29T02:24:43;98906.88;;;4.82;55.18
60240;BME280;46102;39.012;-7.064;2023-01-29T02:27:06;98907.72;;;4.82;54.45
60240;BME280;46102;39.012;-7.064;2023-01-29T02:29:27;98914.78;;;4.83;54.68
60240;BME280;46102;39.012;-7.064;2023-01-29T02:31:43;98917.50;;;4.78;54.45
60240;BME280;46102;39.012;-7.064;2023-01-29T02:38:45;98907.72;;;4.77;54.49
60240;BME280;46102;39.012;-7.064;2023-01-29T02:41:05;98912.34;;;4.76;54.53
60240;BME280;46102;39.012;-7.064;2023-01-29T02:45:43;98914.25;;;4.71;55.39
60240;BME280;46102;39.012;-7.064;2023-01-29T02:47:59;98917.22;;;4.64;55.07
60240;BME280;46102;39.012;-7.064;2023-01-29T02:52:14;98904.44;;;4.59;55.18
60240;BME280;46102;39.012;-7.064;2023-01-29T02:54:27;98907.69;;;4.56;54.91
60240;BME280;46102;39.012;-7.064;2023-01-29T02:56:39;98910.69;;;4.60;55.12
60240;BME280;46102;39.012;-7.064;2023-01-29T02:58:45;98916.13;;;4.55;54.82
60240;BME280;46102;39.012;-7.064;2023-01-29T03:00:48;98905.81;;;4.62;54.70
60240;BME280;46102;39.012;-7.064;2023-01-29T03:03:02;98906.88;;;4.61;54.22
60240;BME280;46102;39.012;-7.064;2023-01-29T03:05:11;98906.06;;;4.55;54.38
60240;BME280;46102;39.012;-7.064;2023-01-29T03:07:21;98905.25;;;4.55;55.05
60240;BME280;46102;39.012;-7.064;2023-01-29T03:10:11;98900.88;;;4.54;54.38
60240;BME280;46102;39.012;-7.064;2023-01-29T03:12:22;98901.44;;;4.56;54.72
60240;BME280;46102;39.012;-7.064;2023-01-29T03:14:36;98903.06;;;4.57;54.24
60240;BME280;46102;39.012;-7.064;2023-01-29T03:16:58;98900.63;;;4.50;54.65
60240;BME280;46102;39.012;-7.064;2023-01-29T03:21:13;98907.41;;;4.53;54.04
60240;BME280;46102;39.012;-7.064;2023-01-29T03:23:36;98909.84;;;4.44;54.04
60240;BME280;46102;39.012;-7.064;2023-01-29T03:25:57;98907.69;;;4.56;54.09
60240;BME280;46102;39.012;-7.064;2023-01-29T03:28:18;98913.66;;;4.53;53.85
60240;BME280;46102;39.012;-7.064;2023-01-29T03:30:49;98918.28;;;4.58;54.34
60240;BME280;46102;39.012;-7.064;2023-01-29T03:33:22;98913.66;;;4.53;53.51
60240;BME280;46102;39.012;-7.064;2023-01-29T03:35:27;98918.53;;;4.46;54.08
60240;BME280;46102;39.012;-7.064;2023-01-29T03:37:41;98919.91;;;4.44;53.93
60240;BME280;46102;39.012;-7.064;2023-01-29T03:39:44;98918.50;;;4.41;54.03
60240;BME280;46102;39.012;-7.064;2023-01-29T03:42:06;98923.69;;;4.37;54.51
60240;BME280;46102;39.012;-7.064;2023-01-29T03:44:14;98915.53;;;4.48;53.88
60240;BME280;46102;39.012;-7.064;2023-01-29T03:46:44;98914.72;;;4.42;54.56
60240;BME280;46102;39.012;-7.064;2023-01-29T03:53:41;98916.09;;;4.40;53.64
60240;BME280;46102;39.012;-7.064;2023-01-29T03:56:03;98920.66;;;4.34;54.49
60240;BME280;46102;39.012;-7.064;2023-01-29T03:58:22;98917.69;;;4.30;54.75
60240;BME280;46102;39.012;-7.064;2023-01-29T04:00:30;98916.59;;;4.36;53.66
60240;BME280;46102;39.012;-7.064;2023-01-29T04:04:52;98921.47;;;4.19;54.89
60240;BME280;46102;39.012;-7.064;2023-01-29T04:07:02;98918.44;;;4.21;54.74
60240;BME280;46102;39.012;-7.064;2023-01-29T04:11:15;98922.53;;;4.23;53.71
60240;BME280;46102;39.012;-7.064;2023-01-29T04:13:19;98922.03;;;4.26;53.74
60240;BME280;46102;39.012;-7.064;2023-01-29T04:15:23;98924.19;;;4.24;54.39
60240;BME280;46102;39.012;-7.064;2023-01-29T04:17:35;98930.16;;;4.21;54.32
60240;BME280;46102;39.012;-7.064;2023-01-29T04:19:46;98929.59;;;4.19;53.75
60240;BME280;46102;39.012;-7.064;2023-01-29T04:21:49;98923.34;;;4.18;54.17
60240;BME280;46102;39.012;-7.064;2023-01-29T04:23:55;98929.88;;;4.28;53.89
60240;BME280;46102;39.012;-7.064;2023-01-29T04:28:47;98930.69;;;4.23;54.07
60240;BME280;46102;39.012;-7.064;2023-01-29T04:31:03;98927.16;;;4.23;54.39
60240;BME280;46102;39.012;-7.064;2023-01-29T04:39:57;98918.69;;;4.04;54.37
60240;BME280;46102;39.012;-7.064;2023-01-29T04:42:33;98929.81;;;4.07;54.19
60240;BME280;46102;39.012;-7.064;2023-01-29T04:44:41;98924.41;;;4.12;53.72
60240;BME280;46102;39.012;-7.064;2023-01-29T04:56:18;98934.44;;;4.07;54.52
60240;BME280;46102;39.012;-7.064;2023-01-29T04:58:27;98933.91;;;4.10;54.30
60240;BME280;46102;39.012;-7.064;2023-01-29T05:00:39;98931.97;;;4.05;54.27
60240;BME280;46102;39.012;-7.064;2023-01-29T05:02:42;98934.41;;;4.02;54.15
60240;BME280;46102;39.012;-7.064;2023-01-29T05:04:45;98932.75;;;4.01;54.30
60240;BME280;46102;39.012;-7.064;2023-01-29T05:06:47;98937.66;;;3.99;54.60
60240;BME280;46102;39.012;-7.064;2023-01-29T05:08:50;98934.09;;;3.88;55.11
60240;BME280;46102;39.012;-7.064;2023-01-29T05:10:52;98935.16;;;3.87;55.14
60240;BME280;46102;39.012;-7.064;2023-01-29T05:13:01;98936.00;;;3.92;54.94
60240;BME280;46102;39.012;-7.064;2023-01-29T05:15:10;98942.22;;;3.88;55.23
60240;BME280;46102;39.012;-7.064;2023-01-29T05:17:14;98937.06;;;3.86;55.43
60240;BME280;46102;39.012;-7.064;2023-01-29T05:19:16;98925.38;;;3.81;55.49
60240;BME280;46102;39.012;-7.064;2023-01-29T05:21:17;98935.09;;;3.77;55.32
60240;BME280;46102;39.012;-7.064;2023-01-29T05:23:20;98928.88;;;3.81;54.84
60240;BME280;46102;39.012;-7.064;2023-01-29T05:25:25;98941.09;;;3.79;54.83
60240;BME280;46102;39.012;-7.064;2023-01-29T05:27:31;98943.25;;;3.77;55.24
60240;BME280;46102;39.012;-7.064;2023-01-29T05:29:51;98945.69;;;3.78;54.72
60240;BME280;46102;39.012;-7.064;2023-01-29T05:31:52;98945.69;;;3.78;54.93
60240;BME280;46102;39.012;-7.064;2023-01-29T05:33:53;98946.78;;;3.82;55.34
60240;BME280;46102;39.012;-7.064;2023-01-29T05:35:57;98943.25;;;3.77;54.78
60240;BME280;46102;39.012;-7.064;2023-01-29T05:37:58;98944.00;;;3.67;55.44
60240;BME280;46102;39.012;-7.064;2023-01-29T05:39:59;98950.03;;;3.74;55.29
60240;BME280;46102;39.012;-7.064;2023-01-29T05:41:59;98946.25;;;3.80;55.28
60240;BME280;46102;39.012;-7.064;2023-01-29T05:44:00;98942.94;;;3.73;55.41
60240;BME280;46102;39.012;-7.064;2023-01-29T05:46:01;98958.97;;;3.69;55.14
60240;BME280;46102;39.012;-7.064;2023-01-29T05:48:02;98956.50;;;3.68;54.97
60240;BME280;46102;39.012;-7.064;2023-01-29T05:50:03;98955.06;;;3.60;55.06
60240;BME280;46102;39.012;-7.064;2023-01-29T05:52:03;98942.91;;;3.63;55.66
60240;BME280;46102;39.012;-7.064;2023-01-29T05:54:04;98954.53;;;3.58;55.11
60240;BME280;46102;39.012;-7.064;2023-01-29T05:56:05;98954.00;;;3.61;55.69
60240;BME280;46102;39.012;-7.064;2023-01-29T05:58:06;98947.78;;;3.61;55.05
60240;BME280;46102;39.012;-7.064;2023-01-29T06:00:08;98946.66;;;3.57;55.21
60240;BME280;46102;39.012;-7.064;2023-01-29T06:02:12;98948.06;;;3.64;55.55
60240;BME280;46102;39.012;-7.064;2023-01-29T06:04:13;98949.66;;;3.60;55.55
60240;BME280;46102;39.012;-7.064;2023-01-29T06:06:14;98955.34;;;3.53;55.46
60240;BME280;46102;39.012;-7.064;2023-01-29T06:08:15;98964.00;;;3.55;55.32
60240;BME280;46102;39.012;-7.064;2023-01-29T06:10:17;98966.22;;;3.59;55.42
60240;BME280;46102;39.012;-7.064;2023-01-29T06:12:18;98970.81;;;3.58;56.09
60240;BME280;46102;39.012;-7.064;2023-01-29T06:14:18;98964.88;;;3.61;55.72
60240;BME280;46102;39.012;-7.064;2023-01-29T06:16:19;98967.78;;;3.49;56.01
60240;BME280;46102;39.012;-7.064;2023-01-29T06:18:20;98961.47;;;3.44;55.94
60240;BME280;46102;39.012;-7.064;2023-01-29T06:20:21;98963.63;;;3.42;56.11
60240;BME280;46102;39.012;-7.064;2023-01-29T06:22:22;98963.16;;;3.50;56.34
60240;BME280;46102;39.012;-7.064;2023-01-29T06:24:23;98966.63;;;3.40;56.47
60240;BME280;46102;39.012;-7.064;2023-01-29T06:26:23;98965.53;;;3.41;56.18
60240;BME280;46102;39.012;-7.064;2023-01-29T06:28:24;98963.91;;;3.40;56.33
60240;BME280;46102;39.012;-7.064;2023-01-29T06:30:25;98965.22;;;3.38;56.70
60240;BME280;46102;39.012;-7.064;2023-01-29T06:32:27;98969.84;;;3.37;56.17
60240;BME280;46102;39.012;-7.064;2023-01-29T06:34:28;98967.66;;;3.34;56.25
60240;BME280;46102;39.012;-7.064;2023-01-29T06:36:29;98969.03;;;3.37;56.06
60240;BME280;46102;39.012;-7.064;2023-01-29T06:38:30;98967.41;;;3.36;57.06
60240;BME280;46102;39.012;-7.064;2023-01-29T06:40:31;98961.69;;;3.32;56.61
60240;BME280;46102;39.012;-7.064;2023-01-29T06:42:34;98969.78;;;3.27;57.03
60240;BME280;46102;39.012;-7.064;2023-01-29T06:44:35;98971.16;;;3.29;56.59
60240;BME280;46102;39.012;-7.064;2023-01-29T06:46:35;98975.13;;;3.22;57.29
60240;BME280;46102;39.012;-7.064;2023-01-29T06:48:36;98975.09;;;3.17;57.01
60240;BME280;46102;39.012;-7.064;2023-01-29T06:50:37;98978.63;;;3.17;57.15
60240;BME280;46102;39.012;-7.064;2023-01-29T06:52:38;98977.56;;;3.18;57.16
60240;BME280;46102;39.012;-7.064;2023-01-29T06:54:38;98992.75;;;3.19;57.27
60240;BME280;46102;39.012;-7.064;2023-01-29T06:56:39;98986.88;;;3.27;57.26
60240;BME280;46102;39.012;-7.064;2023-01-29T06:58:40;98992.75;;;3.19;57.22
60240;BME280;46102;39.012;-7.064;2023-01-29T07:00:42;98995.19;;;3.16;57.09
60240;BME280;46102;39.012;-7.064;2023-01-29T07:02:43;98994.66;;;3.19;57.00
60240;BME280;46102;39.012;-7.064;2023-01-29T07:04:44;98991.94;;;3.19;56.90
60240;BME280;46102;39.012;-7.064;2023-01-29T07:06:45;98991.94;;;3.19;57.26
60240;BME280;46102;39.012;-7.064;2023-01-29T07:08:45;98998.66;;;3.11;57.04
60240;BME280;46102;39.012;-7.064;2023-01-29T07:10:46;99000.06;;;3.19;57.37
60240;BME280;46102;39.012;-7.064;2023-01-29T07:12:47;99002.22;;;3.17;57.21
60240;BME280;46102;39.012;-7.064;2023-01-29T07:14:48;99004.69;;;3.18;57.34
60240;BME280;46102;39.012;-7.064;2023-01-29T07:16:48;99010.91;;;3.19;57.16
60240;BME280;46102;39.012;-7.064;2023-01-29T07:18:49;99012.03;;;3.23;56.89
60240;BME280;46102;39.012;-7.064;2023-01-29T07:20:50;99013.63;;;3.19;56.90
60240;BME280;46102;39.012;-7.064;2023-01-29T07:22:51;99015.31;;;3.25;56.68
60240;BME280;46102;39.012;-7.064;2023-01-29T07:24:52;99019.06;;;3.19;57.10
60240;BME280;46102;39.012;-7.064;2023-01-29T07:26:53;99025.22;;;3.09;57.41
60240;BME280;46102;39.012;-7.064;2023-01-29T07:28:54;99023.91;;;3.17;57.39
60240;BME280;46102;39.012;-7.064;2023-01-29T07:30:57;99028.81;;;3.20;57.31
60240;BME280;46102;39.012;-7.064;2023-01-29T07:33:02;99032.25;;;3.10;57.50
60240;BME280;46102;39.012;-7.064;2023-01-29T07:35:03;99036.88;;;3.09;57.52
60240;BME280;46102;39.012;-7.064;2023-01-29T07:37:04;99045.78;;;3.05;57.76
60240;BME280;46102;39.012;-7.064;2023-01-29T07:39:05;99046.91;;;3.09;57.83
60240;BME280;46102;39.012;-7.064;2023-01-29T07:41:07;99047.34;;;3.01;57.75
60240;BME280;46102;39.012;-7.064;2023-01-29T07:43:09;99056.56;;;3.00;57.82
60240;BME280;46102;39.012;-7.064;2023-01-29T07:45:12;99062.28;;;3.03;58.16
60240;BME280;46102;39.012;-7.064;2023-01-29T07:47:12;99064.44;;;3.01;58.16
60240;BME280;46102;39.012;-7.064;2023-01-29T07:49:13;99065.03;;;3.08;57.86
60240;BME280;46102;39.012;-7.064;2023-01-29T07:51:14;99063.16;;;3.09;58.04
60240;BME280;46102;39.012;-7.064;2023-01-29T07:53:17;99067.81;;;3.13;57.47
60240;BME280;46102;39.012;-7.064;2023-01-29T07:55:18;99068.59;;;3.09;57.63
60240;BME280;46102;39.012;-7.064;2023-01-29T07:57:19;99069.72;;;3.13;58.09
60240;BME280;46102;39.012;-7.064;2023-01-29T07:59:19;99064.06;;;3.20;57.45
60240;BME280;46102;39.012;-7.064;2023-01-29T08:01:20;99072.97;;;3.15;57.85
60240;BME280;46102;39.012;-7.064;2023-01-29T08:03:21;99070.41;;;3.30;57.68
60240;BME280;46102;39.012;-7.064;2023-01-29T08:05:22;99071.63;;;3.45;56.93
60240;BME280;46102;39.012;-7.064;2023-01-29T08:07:22;99071.72;;;3.55;56.30
60240;BME280;46102;39.012;-7.064;2023-01-29T08:09:23;99081.56;;;3.66;56.36
60240;BME280;46102;39.012;-7.064;2023-01-29T08:11:24;99078.16;;;3.76;55.82
60240;BME280;46102;39.012;-7.064;2023-01-29T08:13:25;99090.66;;;3.82;55.07
60240;BME280;46102;39.012;-7.064;2023-01-29T08:15:27;99088.38;;;4.01;54.87
60240;BME280;46102;39.012;-7.064;2023-01-29T08:17:27;99097.13;;;4.13;54.38
60240;BME280;46102;39.012;-7.064;2023-01-29T08:19:28;99093.06;;;4.16;54.16
60240;BME280;46102;39.012;-7.064;2023-01-29T08:21:29;99092.03;;;4.27;54.42
60240;BME280;46102;39.012;-7.064;2023-01-29T08:23:30;99091.56;;;4.35;53.91
60240;BME280;46102;39.012;-7.064;2023-01-29T08:25:31;99099.50;;;4.47;54.19
60240;BME280;46102;39.012;-7.064;2023-01-29T08:27:32;99088.69;;;4.63;53.39
60240;BME280;46102;39.012;-7.064;2023-01-29T08:29:33;99101.50;;;4.72;53.42
60240;BME280;46102;39.012;-7.064;2023-01-29T08:31:34;99107.03;;;4.93;52.72
60240;BME280;46102;39.012;-7.064;2023-01-29T08:33:34;99107.38;;;5.07;52.14
60240;BME280;46102;39.012;-7.064;2023-01-29T08:35:36;99108.47;;;5.21;51.93
60240;BME280;46102;39.012;-7.064;2023-01-29T08:37:37;99110.44;;;5.41;51.50
60240;BME280;46102;39.012;-7.064;2023-01-29T08:39:37;99114.78;;;5.62;50.74
60240;BME280;46102;39.012;-7.064;2023-01-29T08:41:38;99111.03;;;5.79;50.68
60240;BME280;46102;39.012;-7.064;2023-01-29T08:43:39;99115.91;;;5.92;50.31
60240;BME280;46102;39.012;-7.064;2023-01-29T08:45:41;99123.28;;;6.22;49.36
60240;BME280;46102;39.012;-7.064;2023-01-29T08:47:46;99116.66;;;6.54;48.51
60240;BME280;46102;39.012;-7.064;2023-01-29T08:49:48;99128.59;;;6.74;48.01
60240;BME280;46102;39.012;-7.064;2023-01-29T08:51:48;99130.16;;;6.95;47.75
60240;BME280;46102;39.012;-7.064;2023-01-29T08:53:51;99127.00;;;7.22;46.86
60240;BME280;46102;39.012;-7.064;2023-01-29T08:55:53;99132.13;;;7.39;46.72
60240;BME280;46102;39.012;-7.064;2023-01-29T08:57:54;99136.66;;;7.59;46.58
60240;BME280;46102;39.012;-7.064;2023-01-29T08:59:56;99146.09;;;7.72;46.13
60240;BME280;46102;39.012;-7.064;2023-01-29T09:01:57;99149.63;;;7.78;45.92
60240;BME280;46102;39.012;-7.064;2023-01-29T09:03:58;99147.44;;;7.80;45.89
60240;BME280;46102;39.012;-7.064;2023-01-29T09:05:59;99149.84;;;7.86;45.83
60240;BME280;46102;39.012;-7.064;2023-01-29T09:07:59;99148.34;;;7.99;45.56
60240;BME280;46102;39.012;-7.064;2023-01-29T09:10:00;99153.69;;;8.14;45.23
60240;BME280;46102;39.012;-7.064;2023-01-29T09:12:01;99154.44;;;8.25;45.26
60240;BME280;46102;39.012;-7.064;2023-01-29T09:14:03;99158.66;;;8.42;44.96
60240;BME280;46102;39.012;-7.064;2023-01-29T09:16:04;99169.25;;;8.53;44.51
60240;BME280;46102;39.012;-7.064;2023-01-29T09:18:05;99179.25;;;8.63;44.75
60240;BME280;46102;39.012;-7.064;2023-01-29T09:20:06;99171.69;;;8.79;44.19
60240;BME280;46102;39.012;-7.064;2023-01-29T09:22:07;99169.72;;;8.85;44.35
60240;BME280;46102;39.012;-7.064;2023-01-29T09:24:08;99174.22;;;9.00;44.20
60240;BME280;46102;39.012;-7.064;2023-01-29T09:26:08;99173.88;;;9.25;43.61
60240;BME280;46102;39.012;-7.064;2023-01-29T09:28:09;99175.63;;;9.40;42.64
60240;BME280;46102;39.012;-7.064;2023-01-29T09:30:10;99171.63;;;9.51;43.07
60240;BME280;46102;39.012;-7.064;2023-01-29T09:32:11;99177.19;;;9.65;43.08
60240;BME280;46102;39.012;-7.064;2023-01-29T09:34:12;99180.91;;;9.93;42.15
60240;BME280;46102;39.012;-7.064;2023-01-29T09:36:13;99188.56;;;10.10;41.48
60240;BME280;46102;39.012;-7.064;2023-01-29T09:38:14;99194.28;;;10.14;41.64
60240;BME280;46102;39.012;-7.064;2023-01-29T09:40:24;99191.00;;;10.31;41.14
60240;BME280;46102;39.012;-7.064;2023-01-29T09:42:37;99195.22;;;10.42;41.36
60240;BME280;46102;39.012;-7.064;2023-01-29T09:45:04;99189.16;;;10.59;41.11
60240;BME280;46102;39.012;-7.064;2023-01-29T09:47:10;99196.63;;;10.72;40.84
60240;BME280;46102;39.012;-7.064;2023-01-29T09:49:21;99199.38;;;10.86;40.72
60240;BME280;46102;39.012;-7.064;2023-01-29T09:51:29;99197.44;;;11.00;40.24
60240;BME280;46102;39.012;-7.064;2023-01-29T09:53:47;99199.69;;;11.26;39.67
60240;BME280;46102;39.012;-7.064;2023-01-29T09:56:00;99199.88;;;11.30;39.42
60240;BME280;46102;39.012;-7.064;2023-01-29T09:58:18;99194.28;;;11.49;39.09
60240;BME280;46102;39.012;-7.064;2023-01-29T10:00:26;99201.56;;;11.67;39.04
60240;BME280;46102;39.012;-7.064;2023-01-29T10:02:46;99196.66;;;11.92;38.14
60240;BME280;46102;39.012;-7.064;2023-01-29T10:09:35;99207.69;;;12.37;37.24
60240;BME280;46102;39.012;-7.064;2023-01-29T10:23:17;99205.94;;;12.72;36.54
60240;BME280;46102;39.012;-7.064;2023-01-29T10:25:21;99203.78;;;12.91;35.69
60240;BME280;46102;39.012;-7.064;2023-01-29T10:27:26;99209.03;;;12.70;35.01
60240;BME280;46102;39.012;-7.064;2023-01-29T10:29:31;99201.97;;;12.56;35.92
60240;BME280;46102;39.012;-7.064;2023-01-29T10:31:38;99203.16;;;12.63;35.87
60240;BME280;46102;39.012;-7.064;2023-01-29T10:33:41;99206.13;;;12.76;35.35
60240;BME280;46102;39.012;-7.064;2023-01-29T10:35:46;99205.53;;;12.87;35.02
60240;BME280;46102;39.012;-7.064;2023-01-29T10:37:52;99219.44;;;12.82;34.84
60240;BME280;46102;39.012;-7.064;2023-01-29T10:39:53;99221.44;;;12.90;34.40
60240;BME280;46102;39.012;-7.064;2023-01-29T10:48:58;99221.66;;;12.71;35.43
60240;BME280;46102;39.012;-7.064;2023-01-29T10:51:10;99223.38;;;12.90;35.37
60240;BME280;46102;39.012;-7.064;2023-01-29T10:55:56;99221.97;;;13.41;34.39
60240;BME280;46102;39.012;-7.064;2023-01-29T11:00:38;99215.53;;;13.54;33.57
60240;BME280;46102;39.012;-7.064;2023-01-29T11:02:44;99216.84;;;13.66;33.46
60240;BME280;46102;39.012;-7.064;2023-01-29T11:04:45;99217.66;;;13.66;33.82
60240;BME280;46102;39.012;-7.064;2023-01-29T11:06:48;99222.34;;;13.57;33.42
60240;BME280;46102;39.012;-7.064;2023-01-29T11:08:54;99218.75;;;13.48;33.40
60240;BME280;46102;39.012;-7.064;2023-01-29T11:11:06;99212.09;;;13.40;34.07
60240;BME280;46102;39.012;-7.064;2023-01-29T11:13:12;99217.75;;;13.35;34.17
60240;BME280;46102;39.012;-7.064;2023-01-29T11:15:31;99212.75;;;13.46;34.02
60240;BME280;46102;39.012;-7.064;2023-01-29T11:17:34;99212.78;;;13.54;34.53
60240;BME280;46102;39.012;-7.064;2023-01-29T11:19:40;99221.41;;;13.79;34.29
60240;BME280;46102;39.012;-7.064;2023-01-29T11:21:58;99218.00;;;13.82;33.80
60240;BME280;46102;39.012;-7.064;2023-01-29T11:24:11;99208.78;;;13.78;33.90
60240;BME280;46102;39.012;-7.064;2023-01-29T11:26:19;99201.81;;;13.89;34.28
60240;BME280;46102;39.012;-7.064;2023-01-29T11:28:35;99204.22;;;13.91;33.80
60240;BME280;46102;39.012;-7.064;2023-01-29T11:30:38;99203.75;;;13.71;34.19
60240;BME280;46102;39.012;-7.064;2023-01-29T11:32:39;99202.59;;;13.72;33.92
60240;BME280;46102;39.012;-7.064;2023-01-29T11:35:01;99195.94;;;13.65;33.65
60240;BME280;46102;39.012;-7.064;2023-01-29T11:37:04;99193.97;;;13.57;34.30
60240;BME280;46102;39.012;-7.064;2023-01-29T11:39:22;99191.72;;;13.59;33.71
60240;BME280;46102;39.012;-7.064;2023-01-29T11:41:23;99183.28;;;13.64;33.52
60240;BME280;46102;39.012;-7.064;2023-01-29T11:43:31;99182.78;;;13.62;33.42
60240;BME280;46102;39.012;-7.064;2023-01-29T11:45:32;99181.81;;;13.58;32.63
60240;BME280;46102;39.012;-7.064;2023-01-29T11:47:34;99182.13;;;13.47;32.61
60240;BME280;46102;39.012;-7.064;2023-01-29T11:49:35;99172.28;;;13.24;33.27
60240;BME280;46102;39.012;-7.064;2023-01-29T11:51:37;99171.56;;;13.32;33.91
60240;BME280;46102;39.012;-7.064;2023-01-29T11:53:42;99168.00;;;13.40;33.51
60240;BME280;46102;39.012;-7.064;2023-01-29T11:55:44;99169.16;;;13.57;34.46
60240;BME280;46102;39.012;-7.064;2023-01-29T11:57:55;99159.13;;;13.87;34.08
60240;BME280;46102;39.012;-7.064;2023-01-29T12:00:00;99146.97;;;13.97;33.26
60240;BME280;46102;39.012;-7.064;2023-01-29T12:04:26;99158.63;;;14.28;33.07
60240;BME280;46102;39.012;-7.064;2023-01-29T12:06:33;99151.75;;;14.43;32.58
60240;BME280;46102;39.012;-7.064;2023-01-29T12:08:37;99153.22;;;14.58;32.39
60240;BME280;46102;39.012;-7.064;2023-01-29T12:10:40;99145.84;;;14.88;32.21
60240;BME280;46102;39.012;-7.064;2023-01-29T12:12:41;99135.91;;;14.87;31.86
60240;BME280;46102;39.012;-7.064;2023-01-29T12:14:43;99132.06;;;14.80;31.78